Time;durP1;ratioP1;P1;durP2;ratioP2;P2;SDS_P1;SDS_P2;PMS_P1;PMS_P2;Temp;Humidity;BMP_temperature;BMP_pressure;BME280_temperature;BME280_humidity;BME280_pressure;Samples;Min_cycle;Max_cycle;Signal;HPM_P1;HPM_P2
2024/04/07 00:01:41;;;;;;;2.08;1.45;;;16.40;50.80;;;12.58;68.74;95523.19;4950401;28;20073;-51
2024/04/07 00:04:07;;;;;;;7.30;2.25;;;16.40;50.60;;;12.55;69.83;95519.19;4951189;28;20033;-54
2024/04/07 00:06:33;;;;;;;7.68;1.45;;;16.40;50.60;;;12.43;69.11;95513.41;4950134;28;20441;-53
2024/04/07 00:09:01;;;;;;;9.00;1.80;;;16.40;50.40;;;12.42;69.58;95514.47;4949694;28;20037;-47
2024/04/07 00:11:29;;;;;;;5.35;1.48;;;16.40;50.40;;;12.34;68.94;95497.16;4950645;28;20039;-53
2024/04/07 00:13:56;;;;;;;3.65;1.55;;;16.40;50.20;;;12.27;68.81;95500.13;4950051;28;20030;-50
2024/04/07 00:16:23;;;;;;;4.07;1.60;;;16.30;50.10;;;12.40;65.54;95496.03;4950042;28;20524;-55
2024/04/07 00:18:49;;;;;;;9.77;1.50;;;16.30;49.90;;;12.53;64.66;95494.63;4949299;28;20485;-49
2024/04/07 00:21:15;;;;;;;4.60;1.65;;;16.30;49.80;;;12.53;65.44;95491.94;4944347;29;20489;-48
2024/04/07 00:23:41;;;;;;;3.35;1.40;;;16.40;49.80;;;12.54;62.01;95496.22;4951286;28;20373;-53
2024/04/07 00:26:08;;;;;;;3.72;1.60;;;16.40;49.40;;;12.59;61.57;95490.81;4948591;28;20038;-51
2024/04/07 00:28:34;;;;;;;3.20;1.50;;;16.40;49.10;;;12.58;65.55;95488.44;4948981;28;20421;-55
2024/04/07 00:31:04;;;;;;;2.35;1.48;;;16.40;49.20;;;12.54;63.00;95485.53;4949587;28;20101;-52
2024/04/07 00:33:30;;;;;;;6.15;1.40;;;16.40;49.00;;;12.45;63.92;95473.84;4950545;28;20018;-53
2024/04/07 00:36:01;;;;;;;3.85;1.45;;;16.40;48.90;;;12.45;65.05;95480.00;4950026;28;20038;-51
2024/04/07 00:38:32;;;;;;;4.60;1.20;;;16.40;48.80;;;12.39;64.81;95477.63;4964158;28;20367;-52
2024/04/07 00:41:00;;;;;;;3.05;1.17;;;16.40;48.90;;;12.37;61.64;95482.44;4950437;28;20026;-55
2024/04/07 00:43:28;;;;;;;8.02;1.30;;;16.30;48.50;;;12.37;63.13;95485.91;4950693;28;20108;-53
2024/04/07 00:45:57;;;;;;;3.33;1.20;;;16.30;48.50;;;12.37;61.82;95477.09;4947907;28;20397;-50
2024/04/07 00:48:25;;;;;;;2.33;1.40;;;16.30;48.40;;;12.33;61.01;95489.44;4950534;28;20038;-56
2024/04/07 00:50:55;;;;;;;2.90;1.48;;;16.30;48.10;;;12.29;60.29;95494.53;4949188;28;20026;-49
2024/04/07 00:53:22;;;;;;;4.90;1.50;;;16.30;47.90;;;12.27;61.47;95500.13;4949313;28;20105;-52
2024/04/07 00:55:49;;;;;;;4.10;1.50;;;16.30;47.80;;;12.22;61.21;95499.38;4948237;28;20029;-53
2024/04/07 00:58:19;;;;;;;4.80;1.15;;;16.30;47.70;;;12.13;65.54;95501.84;4949380;28;20512;-54
2024/04/07 01:00:46;;;;;;;3.53;1.30;;;16.30;47.90;;;11.92;66.63;95493.13;4947540;28;20457;-53
2024/04/07 01:03:15;;;;;;;3.95;1.10;;;16.20;47.90;;;11.88;66.32;95499.31;4950167;28;20030;-48
2024/04/07 01:05:49;;;;;;;6.40;1.40;;;16.10;48.00;;;11.77;63.00;95498.50;4949886;29;20030;-51
2024/04/07 01:08:17;;;;;;;4.90;1.52;;;16.10;47.90;;;11.87;64.84;95501.16;4947257;28;20030;-48
2024/04/07 01:10:50;;;;;;;6.03;1.70;;;16.00;47.90;;;11.78;65.52;95498.25;4951048;28;20046;-53
2024/04/07 01:13:16;;;;;;;5.50;1.20;;;16.00;48.00;;;11.69;65.94;95505.22;4950219;28;20034;-52
2024/04/07 01:15:42;;;;;;;3.42;1.48;;;15.90;48.00;;;11.62;66.54;95501.22;4953098;28;20042;-51
2024/04/07 01:18:08;;;;;;;3.78;1.15;;;15.90;48.10;;;11.55;67.54;95505.00;4952814;28;20030;-54
2024/04/07 01:20:35;;;;;;;3.70;1.30;;;15.80;48.10;;;11.52;65.67;95505.53;4951474;28;20061;-47
2024/04/07 01:23:02;;;;;;;3.83;1.23;;;15.80;48.10;;;11.43;69.40;95507.16;4953444;28;20615;-48
2024/04/07 01:25:28;;;;;;;2.33;1.38;;;15.70;48.30;;;11.34;71.56;95506.13;4945163;28;20167;-54
2024/04/07 01:27:59;;;;;;;3.75;1.25;;;15.60;48.50;;;11.26;71.35;95504.03;4952760;28;20018;-53
2024/04/07 01:30:26;;;;;;;1.73;1.10;;;15.60;48.70;;;11.23;70.59;95501.91;4947343;28;20507;-51
2024/04/07 01:32:52;;;;;;;4.88;1.30;;;15.50;48.80;;;11.00;73.19;95505.91;4944954;28;20022;-53
2024/04/07 01:35:19;;;;;;;6.07;1.27;;;15.40;48.90;;;11.01;70.94;95523.53;4953015;28;20094;-48
2024/04/07 01:37:45;;;;;;;5.40;1.35;;;15.40;49.00;;;10.95;73.06;95516.59;4943538;28;20158;-53
2024/04/07 01:40:12;;;;;;;5.95;1.13;;;15.30;49.20;;;10.92;71.78;95517.94;4952836;28;20053;-53
2024/04/07 01:42:41;;;;;;;2.63;1.25;;;15.20;49.20;;;10.91;73.50;95513.66;4953678;28;20026;-53
2024/04/07 01:45:09;;;;;;;4.82;2.00;;;15.20;49.50;;;10.79;71.75;95515.81;4960411;28;20095;-49
2024/04/07 01:47:39;;;;;;;3.67;1.50;;;15.10;49.50;;;10.76;74.99;95498.47;4952548;28;20062;-52
2024/04/07 01:50:07;;;;;;;3.67;1.08;;;15.10;49.70;;;10.71;75.62;95498.47;4952021;28;20047;-50
2024/04/07 01:52:33;;;;;;;3.78;1.00;;;15.00;49.90;;;10.59;74.81;95501.44;4952911;28;20457;-50
2024/04/07 01:54:59;;;;;;;3.38;1.30;;;14.90;49.90;;;10.57;75.96;95494.75;4950614;28;20031;-50
2024/04/07 01:57:25;;;;;;;4.25;1.35;;;14.90;50.10;;;10.55;75.83;95492.34;4949170;28;20018;-47
2024/04/07 01:59:51;;;;;;;3.10;0.93;;;14.80;50.10;;;10.43;77.60;95491.81;4950537;28;20035;-49
2024/04/07 02:02:19;;;;;;;3.13;1.20;;;14.80;50.30;;;10.31;77.06;95486.75;4951989;28;20023;-52
2024/04/07 02:04:49;;;;;;;2.47;1.25;;;14.70;50.40;;;10.27;76.20;95500.84;4952823;28;20031;-49
2024/04/07 02:07:19;;;;;;;5.57;1.17;;;14.70;50.60;;;10.22;77.24;95490.19;4950462;28;20030;-51
2024/04/07 02:09:49;;;;;;;8.00;1.27;;;14.60;50.60;;;10.17;76.06;95481.09;4952777;28;20040;-49
2024/04/07 02:12:15;;;;;;;3.38;1.48;;;14.50;50.60;;;10.16;77.84;95478.72;4943292;28;20054;-53
2024/04/07 02:14:43;;;;;;;7.43;1.30;;;14.50;50.80;;;10.14;78.28;95484.28;4946096;28;20050;-53
2024/04/07 02:17:11;;;;;;;2.33;1.05;;;14.40;50.90;;;10.08;78.10;95489.88;4951577;28;20084;-49
2024/04/07 02:19:38;;;;;;;5.45;1.38;;;14.40;50.90;;;9.96;80.63;95482.13;4950383;28;20624;-52
2024/04/07 02:22:05;;;;;;;2.67;1.15;;;14.40;51.10;;;9.92;79.98;95492.50;4950164;28;20034;-50
2024/04/07 02:24:31;;;;;;;2.03;1.02;;;14.30;51.10;;;9.84;79.37;95485.03;4952193;28;20031;-54
2024/04/07 02:26:58;;;;;;;2.50;1.02;;;14.30;51.20;;;9.87;80.35;95489.84;4949144;28;20871;-51
2024/04/07 02:29:24;;;;;;;6.18;1.20;;;14.20;51.40;;;9.80;80.51;95497.25;4952208;28;20192;-50
2024/04/07 02:31:50;;;;;;;5.22;1.58;;;14.20;51.40;;;9.77;80.16;95508.41;4948201;28;20031;-54
2024/04/07 02:34:16;;;;;;;5.13;1.30;;;14.10;51.50;;;9.81;79.20;95498.03;4951048;28;20015;-53
2024/04/07 02:36:42;;;;;;;9.60;1.42;;;14.20;51.70;;;9.89;82.28;95498.34;4962659;28;20030;-50
2024/04/07 02:39:13;;;;;;;4.93;1.30;;;14.10;51.70;;;9.82;79.75;95513.75;4933786;28;20042;-48
2024/04/07 02:41:41;;;;;;;3.28;1.00;;;14.10;51.80;;;9.89;79.28;95503.66;4952447;28;20040;-51
2024/04/07 02:44:07;;;;;;;8.00;1.05;;;14.10;51.80;;;9.85;81.24;95502.59;4952212;28;20019;-49
2024/04/07 02:49:18;;;;;;;3.80;1.15;;;14.10;51.90;;;9.78;84.15;95494.06;4948995;28;20449;-48
2024/04/07 02:51:45;;;;;;;4.32;1.30;;;14.00;52.00;;;9.78;80.28;95488.75;4966532;28;20557;-52
2024/04/07 02:54:11;;;;;;;1.67;1.23;;;14.00;52.10;;;9.80;80.25;95491.94;4949865;28;20142;-51
2024/04/07 02:56:37;;;;;;;2.67;1.42;;;14.10;52.20;;;9.88;79.48;95491.44;4949433;28;20432;-51
2024/04/07 02:59:04;;;;;;;4.03;1.52;;;14.00;52.70;;;9.85;80.16;95462.69;4950125;28;20086;-55
2024/04/07 03:01:30;;;;;;;2.47;0.90;;;14.10;52.20;;;9.91;75.82;95516.72;4950623;28;20015;-52
2024/04/07 03:03:56;;;;;;;3.20;1.40;;;14.10;52.10;;;10.04;75.92;95513.56;4952096;28;20065;-53
2024/04/07 03:06:22;;;;;;;1.77;0.90;;;14.10;52.00;;;10.15;74.94;95509.03;4950861;28;20057;-48
2024/04/07 03:08:49;;;;;;;3.05;1.27;;;14.20;52.00;;;10.33;71.05;95507.78;4965026;28;20022;-52
2024/04/07 03:11:15;;;;;;;2.85;1.08;;;14.30;51.80;;;10.39;75.22;95507.53;4951372;28;20088;-47
2024/04/07 03:13:41;;;;;;;2.28;0.90;;;14.40;51.80;;;10.44;74.52;95517.41;4946192;28;20027;-54
2024/04/07 03:16:14;;;;;;;3.72;1.08;;;14.40;51.70;;;10.38;77.20;95511.25;4950077;28;20022;-50
2024/04/07 03:18:41;;;;;;;2.38;1.10;;;14.50;51.80;;;10.39;74.64;95498.75;4949168;28;20030;-54
2024/04/07 03:21:08;;;;;;;3.95;1.23;;;14.50;51.70;;;10.42;74.79;95503.53;4949942;28;20054;-56
2024/04/07 03:23:33;;;;;;;8.45;1.80;;;14.50;51.60;;;10.36;76.10;95502.72;4951530;28;20049;-50
2024/04/07 03:25:59;;;;;;;5.38;1.27;;;14.50;51.50;;;10.46;75.23;95514.44;4948765;28;20030;-53
2024/04/07 03:28:25;;;;;;;8.43;1.10;;;14.60;51.50;;;10.50;74.59;95508.34;4951211;28;20029;-51
2024/04/07 03:30:52;;;;;;;2.58;1.00;;;14.60;51.50;;;10.44;79.60;95492.63;4950114;28;20371;-50
2024/04/07 03:33:18;;;;;;;6.70;1.30;;;14.60;51.50;;;10.38;79.12;95502.47;4950491;28;20027;-52
2024/04/07 03:35:44;;;;;;;1.27;0.90;;;14.60;51.60;;;10.36;74.14;95516.03;4950698;28;20433;-54
2024/04/07 03:38:12;;;;;;;3.65;1.10;;;14.60;51.50;;;10.50;74.89;95503.03;4948685;28;20050;-50
2024/04/07 03:40:38;;;;;;;3.10;1.20;;;14.60;51.50;;;10.58;74.45;95515.00;4951438;28;20030;-47
2024/04/07 03:43:05;;;;;;;3.17;0.98;;;14.60;51.40;;;10.55;75.92;95504.88;4951608;28;20048;-47
2024/04/07 03:45:31;;;;;;;6.78;1.23;;;14.70;51.50;;;10.58;76.81;95515.00;4950349;28;20518;-51
2024/04/07 03:47:57;;;;;;;2.60;0.90;;;14.70;51.50;;;10.59;75.67;95524.56;4950876;28;20034;-50
2024/04/07 03:50:23;;;;;;;4.85;1.13;;;14.70;51.50;;;10.61;74.01;95525.91;4949570;28;20031;-49
2024/04/07 03:52:48;;;;;;;4.38;1.48;;;14.70;51.40;;;10.65;73.56;95537.66;4950971;28;20027;-53
2024/04/07 03:55:14;;;;;;;3.63;1.00;;;14.80;51.30;;;10.66;73.68;95543.78;4950301;28;20026;-51
2024/04/07 03:57:40;;;;;;;2.95;0.90;;;14.80;51.30;;;10.69;73.09;95551.25;4947064;28;20046;-47
2024/04/07 04:00:07;;;;;;;3.00;1.20;;;14.80;51.20;;;10.69;75.53;95542.47;4948878;28;20054;-50
2024/04/07 04:02:33;;;;;;;4.78;1.13;;;14.90;51.20;;;10.67;78.57;95548.03;4949769;28;20041;-52
2024/04/07 04:05:02;;;;;;;4.13;1.00;;;14.90;51.40;;;10.66;75.86;95543.78;4950289;28;20026;-51
2024/04/07 04:07:31;;;;;;;6.03;1.35;;;14.90;51.40;;;10.68;69.83;95557.63;4938453;28;20059;-51
2024/04/07 04:09:59;;;;;;;3.75;1.17;;;14.90;51.10;;;10.81;69.99;95566.94;4950328;28;20051;-50
2024/04/07 04:12:28;;;;;;;3.75;1.17;;;15.00;51.00;;;10.93;70.87;95590.66;4950702;28;20030;-53
2024/04/07 04:14:57;;;;;;;3.88;1.38;;;15.00;50.90;;;11.01;70.26;95612.28;4957894;28;20126;-48
2024/04/07 04:17:24;;;;;;;7.43;1.30;;;15.00;50.80;;;11.03;69.54;95620.81;4950457;28;20153;-50
2024/04/07 04:19:51;;;;;;;3.13;1.20;;;15.10;50.80;;;11.05;70.43;95618.66;4947904;28;20031;-49
2024/04/07 04:22:18;;;;;;;3.88;1.08;;;15.10;50.70;;;11.02;74.26;95615.72;4951058;28;20080;-53
2024/04/07 04:24:44;;;;;;;1.25;1.05;;;15.20;50.80;;;11.01;71.23;95624.81;4964968;28;20033;-51
2024/04/07 04:27:10;;;;;;;4.35;1.17;;;15.20;50.60;;;10.95;75.07;95620.53;4949614;28;20460;-47
2024/04/07 04:29:37;;;;;;;3.13;1.20;;;15.20;50.60;;;10.80;75.36;95610.66;4947454;28;20031;-48
2024/04/07 04:32:04;;;;;;;5.25;1.23;;;15.20;50.70;;;10.83;72.18;95602.13;4947994;28;20022;-50
2024/04/07 04:34:34;;;;;;;7.30;2.03;;;15.20;50.60;;;10.85;71.48;95597.34;4948536;28;20037;-52
2024/04/07 04:37:01;;;;;;;8.18;1.58;;;15.10;50.60;;;10.90;71.61;95581.34;4948478;28;20026;-51
2024/04/07 04:39:27;;;;;;;4.18;1.35;;;15.10;50.50;;;11.02;67.71;95592.53;4944954;28;20058;-54
2024/04/07 04:41:53;;;;;;;3.83;1.95;;;15.10;50.40;;;11.31;66.28;95598.16;4949698;28;20073;-53
2024/04/07 04:44:20;;;;;;;4.00;1.30;;;15.20;50.30;;;11.42;68.71;95606.91;4947635;28;20409;-52
2024/04/07 04:46:48;;;;;;;6.13;1.63;;;15.30;50.40;;;11.41;69.44;95617.88;4951304;28;20092;-49
2024/04/07 04:49:17;;;;;;;4.35;1.40;;;15.40;50.40;;;11.32;71.62;95631.72;4953607;28;20022;-47
2024/04/07 04:51:44;;;;;;;3.97;1.20;;;15.40;50.40;;;11.24;74.35;95623.47;4955988;28;20505;-48
2024/04/07 04:54:11;;;;;;;4.63;1.10;;;15.40;50.50;;;11.15;75.53;95625.06;4953880;28;20034;-48
2024/04/07 04:56:38;;;;;;;5.90;1.48;;;15.40;50.60;;;11.02;76.72;95626.41;4954517;28;20118;-52
2024/04/07 04:59:05;;;;;;;5.13;1.50;;;15.30;50.70;;;10.82;77.21;95633.31;4960911;28;20026;-47
2024/04/07 05:01:31;;;;;;;4.68;1.60;;;15.20;50.80;;;10.87;77.51;95633.31;4953346;28;20449;-52
2024/04/07 05:03:59;;;;;;;4.25;1.50;;;15.20;50.90;;;10.78;77.63;95621.59;4955952;28;20026;-52
2024/04/07 05:06:25;;;;;;;5.15;1.67;;;15.10;51.00;;;10.77;77.33;95640.50;4953759;28;20101;-53
2024/04/07 05:08:52;;;;;;;3.33;1.50;;;15.10;51.10;;;10.62;77.96;95646.56;4956364;28;20026;-48
2024/04/07 05:11:18;;;;;;;2.33;1.30;;;15.00;51.20;;;10.70;78.13;95646.06;4959998;28;20049;-51
2024/04/07 05:13:44;;;;;;;10.32;1.60;;;15.00;51.20;;;10.69;77.65;95655.13;4957637;28;20021;-48
2024/04/07 05:16:12;;;;;;;6.30;1.60;;;15.00;51.30;;;10.60;78.70;95656.72;4954360;28;20509;-49
2024/04/07 05:18:39;;;;;;;5.57;1.40;;;14.90;51.40;;;10.50;79.50;95669.97;4954228;28;20037;-48
2024/04/07 05:21:11;;;;;;;6.22;1.33;;;14.90;51.50;;;10.48;78.76;95670.25;4940077;28;20041;-47
2024/04/07 05:23:44;;;;;;;5.97;1.30;;;14.90;51.70;;;10.49;80.04;95685.16;4956866;28;20506;-48
2024/04/07 05:26:18;;;;;;;4.45;1.33;;;14.90;51.70;;;10.54;81.26;95690.53;4954240;28;20493;-47
2024/04/07 05:28:45;;;;;;;5.97;1.40;;;14.90;51.90;;;10.49;82.90;95690.50;4950396;28;20389;-48
2024/04/07 05:31:12;;;;;;;2.88;1.40;;;14.80;52.00;;;10.40;83.15;95695.53;4956295;28;20050;-53
2024/04/07 05:33:45;;;;;;;7.18;2.03;;;14.80;52.10;;;10.37;84.75;95700.56;4959108;28;20072;-54
2024/04/07 05:36:11;;;;;;;4.53;1.58;;;14.80;52.40;;;10.30;83.42;95708.78;4957662;28;20030;-55
2024/04/07 05:38:40;;;;;;;7.07;1.65;;;14.80;52.30;;;10.37;83.37;95713.88;4954657;28;20490;-53
2024/04/07 05:41:06;;;;;;;4.28;1.25;;;14.80;52.40;;;10.40;78.33;95714.19;4954266;28;20030;-50
2024/04/07 05:43:34;;;;;;;5.53;1.48;;;14.80;52.20;;;10.50;81.67;95717.91;4954238;28;20034;-49
2024/04/07 05:46:09;;;;;;;8.85;1.20;;;14.90;52.40;;;10.53;79.32;95720.06;4955035;28;20498;-53
2024/04/07 05:48:36;;;;;;;9.02;2.05;;;15.00;52.40;;;10.59;81.43;95719.03;4954117;28;20027;-49
2024/04/07 05:51:10;;;;;;;6.30;1.45;;;15.00;52.20;;;10.64;79.62;95721.72;4950158;28;20057;-50
2024/04/07 05:53:36;;;;;;;3.50;1.42;;;15.00;52.20;;;10.77;80.31;95726.53;4951536;28;20076;-52
2024/04/07 05:56:03;;;;;;;7.32;1.73;;;15.20;52.20;;;10.86;80.02;95730.31;4949271;28;20496;-49
2024/04/07 05:58:30;;;;;;;4.88;1.73;;;15.20;52.20;;;10.95;80.53;95735.94;4951545;28;20113;-54
2024/04/07 06:00:59;;;;;;;10.35;5.15;;;15.40;52.30;;;11.06;76.25;95744.75;4948311;28;20532;-50
2024/04/07 06:03:24;;;;;;;5.18;2.33;;;15.40;52.10;;;11.25;74.05;95732.53;4950601;28;20481;-51
2024/04/07 06:05:50;;;;;;;4.47;1.80;;;15.60;51.90;;;11.42;75.53;95745.63;4949132;28;20037;-54
2024/04/07 06:08:16;;;;;;;3.28;1.52;;;15.70;51.90;;;11.53;72.48;95746.41;4949761;28;20069;-51
2024/04/07 06:10:42;;;;;;;4.47;2.10;;;15.90;51.60;;;11.69;73.75;95747.22;4952944;28;20517;-51
2024/04/07 06:13:08;;;;;;;4.22;1.73;;;16.00;51.40;;;11.81;78.29;95763.75;4957477;28;20493;-50
2024/04/07 06:15:34;;;;;;;5.80;1.80;;;16.20;51.50;;;11.89;76.22;95762.47;4950183;28;20540;-49
2024/04/07 06:18:01;;;;;;;5.05;1.60;;;16.30;51.40;;;12.04;75.82;95773.13;4951190;28;20027;-53
2024/04/07 06:20:27;;;;;;;4.72;1.40;;;16.40;51.30;;;12.15;76.13;95771.25;4950819;28;20113;-49
2024/04/07 06:22:53;;;;;;;5.28;1.70;;;16.60;51.20;;;12.26;75.17;95757.59;4952401;28;20117;-50
2024/04/07 06:25:19;;;;;;;5.82;1.65;;;16.70;51.10;;;12.32;73.17;95787.78;4951789;28;20481;-51
2024/04/07 06:27:46;;;;;;;4.00;1.42;;;16.80;50.90;;;12.50;71.13;95778.38;4949978;28;20359;-50
2024/04/07 06:30:12;;;;;;;5.35;1.80;;;17.00;50.60;;;12.66;71.64;95781.78;4952126;28;20030;-49
2024/04/07 06:32:38;;;;;;;2.70;1.60;;;17.20;50.50;;;12.78;74.00;95792.19;4948742;28;20493;-49
2024/04/07 06:35:05;;;;;;;2.75;1.38;;;17.30;50.40;;;12.91;72.37;95789.75;4952415;28;20033;-50
2024/04/07 06:37:31;;;;;;;5.47;1.70;;;17.50;50.30;;;13.07;69.65;95790.47;4966119;28;20019;-49
2024/04/07 06:39:57;;;;;;;6.40;1.80;;;17.70;50.00;;;13.20;66.00;95802.44;4949898;28;20504;-49
2024/04/07 06:42:32;;;;;;;4.50;1.48;;;17.80;49.50;;;13.41;66.99;95805.81;4951774;28;20030;-51
2024/04/07 06:44:59;;;;;;;3.72;1.67;;;18.00;49.20;;;13.54;67.14;95797.19;4951031;28;20429;-50
2024/04/07 06:47:27;;;;;;;3.90;1.80;;;18.20;48.90;;;13.69;67.30;95803.50;4950225;28;20046;-55
2024/04/07 06:49:57;;;;;;;8.93;4.07;;;18.40;48.80;;;13.84;65.11;95806.06;4951014;28;20114;-53
2024/04/07 06:52:25;;;;;;;4.63;1.92;;;18.60;48.40;;;14.04;64.96;95807.78;4951699;28;20477;-50
2024/04/07 06:54:51;;;;;;;8.88;2.15;;;18.80;48.20;;;14.18;65.95;95799.91;4951332;28;20045;-54
2024/04/07 06:57:21;;;;;;;6.40;2.10;;;18.90;48.20;;;14.31;65.43;95808.09;4949309;28;20023;-55
2024/04/07 06:59:50;;;;;;;6.22;1.77;;;19.10;48.10;;;14.35;65.49;95801.09;4950585;28;20100;-54
2024/04/07 07:02:17;;;;;;;5.93;1.98;;;19.20;47.90;;;14.53;60.63;95813.00;4950279;28;20023;-50
2024/04/07 07:04:43;;;;;;;2.47;1.55;;;19.40;47.40;;;14.65;68.77;95798.41;4950796;28;20023;-48
2024/04/07 07:07:09;;;;;;;5.43;1.60;;;19.50;47.50;;;14.77;70.35;95815.69;4952918;28;20489;-51
2024/04/07 07:09:35;;;;;;;4.40;1.50;;;19.60;47.70;;;14.89;65.33;95807.25;4950712;28;20113;-47
2024/04/07 07:12:02;;;;;;;5.00;1.77;;;19.70;47.40;;;15.01;66.92;95807.66;4951570;28;20121;-51
2024/04/07 07:14:29;;;;;;;4.47;1.80;;;19.80;47.30;;;15.06;64.43;95806.78;4950831;28;20034;-46
2024/04/07 07:16:55;;;;;;;4.57;1.90;;;20.00;47.10;;;15.19;64.31;95816.00;4951580;28;20026;-50
2024/04/07 07:19:22;;;;;;;4.47;1.75;;;20.10;47.00;;;15.27;63.61;95801.97;4950244;28;20046;-49
2024/04/07 07:21:49;;;;;;;5.38;1.73;;;20.20;46.70;;;15.38;63.01;95803.41;4951455;28;20037;-53
2024/04/07 07:24:15;;;;;;;6.03;1.77;;;20.30;46.50;;;15.48;64.92;95807.81;4965935;28;20473;-47
2024/04/07 07:26:41;;;;;;;4.47;1.70;;;20.40;46.50;;;15.59;66.53;95806.59;4948857;28;20121;-49
2024/04/07 07:29:07;;;;;;;9.40;1.60;;;20.50;46.60;;;15.66;60.18;95811.59;4951090;28;20512;-47
2024/04/07 07:31:33;;;;;;;6.10;1.23;;;20.60;46.10;;;15.71;57.51;95811.56;4952558;28;20485;-52
2024/04/07 07:34:00;;;;;;;4.30;1.70;;;20.70;45.60;;;15.86;63.38;95815.94;4951378;28;20055;-47
2024/04/07 07:36:26;;;;;;;2.88;1.60;;;20.90;45.60;;;15.85;52.92;95809.72;4953629;28;20027;-52
2024/04/07 07:38:52;;;;;;;3.15;1.40;;;21.00;44.80;;;15.90;51.63;95808.88;4949347;28;20113;-52
2024/04/07 07:41:18;;;;;;;5.43;1.73;;;21.10;44.00;;;16.10;53.43;95821.19;4951481;28;20105;-49
2024/04/07 07:43:45;;;;;;;3.75;1.35;;;21.20;43.60;;;16.30;56.37;95825.44;4950001;28;20027;-48
2024/04/07 07:46:11;;;;;;;5.95;1.30;;;21.40;43.60;;;16.35;52.17;95817.25;4950429;28;20043;-55
2024/04/07 07:48:39;;;;;;;2.75;1.40;;;21.50;43.20;;;16.48;51.57;95824.56;4950885;28;20241;-50
2024/04/07 07:51:12;;;;;;;4.82;1.42;;;21.70;42.60;;;16.67;49.96;95829.88;4949328;28;20498;-49
2024/04/07 07:53:39;;;;;;;5.28;1.27;;;21.90;42.50;;;16.87;53.28;95826.84;4950599;28;20030;-51
2024/04/07 07:56:07;;;;;;;5.03;1.58;;;22.00;42.00;;;17.06;54.88;95834.81;4949024;28;20113;-47
2024/04/07 07:58:38;;;;;;;8.20;2.03;;;22.10;42.10;;;17.19;53.80;95838.59;4951003;28;20486;-48
2024/04/07 08:01:05;;;;;;;7.45;1.60;;;22.30;42.00;;;17.34;52.67;95837.50;4949475;28;20038;-46
2024/04/07 08:03:32;;;;;;;6.75;1.50;;;22.40;41.70;;;17.49;53.91;95839.06;4950792;28;20030;-51
2024/04/07 08:05:59;;;;;;;8.48;4.65;;;22.60;41.70;;;17.57;54.92;95836.44;4950451;28;20034;-48
2024/04/07 08:08:26;;;;;;;5.47;1.58;;;22.70;41.70;;;17.69;56.14;95833.22;4948493;28;20027;-52
2024/04/07 08:10:52;;;;;;;5.07;1.30;;;22.80;41.80;;;17.82;55.15;95826.22;4949840;28;20030;-50
2024/04/07 08:13:18;;;;;;;4.10;1.52;;;23.00;41.60;;;17.94;54.42;95829.19;4949942;28;20023;-52
2024/04/07 08:15:45;;;;;;;4.05;1.75;;;23.10;41.40;;;18.04;54.85;95826.25;4949952;28;20388;-47
2024/04/07 08:18:13;;;;;;;7.32;1.50;;;23.40;41.30;;;18.22;58.10;95819.09;4950226;29;20509;-54
2024/04/07 08:20:42;;;;;;;4.18;1.52;;;23.50;41.50;;;18.32;57.41;95815.34;4950281;28;20069;-52
2024/04/07 08:23:12;;;;;;;5.53;1.48;;;23.70;41.60;;;18.47;60.48;95816.84;4954068;28;20573;-51
2024/04/07 08:25:38;;;;;;;2.92;1.60;;;23.90;42.00;;;18.58;60.21;95815.47;4953219;28;20456;-49
2024/04/07 08:28:04;;;;;;;2.55;1.40;;;24.00;41.80;;;18.72;60.67;95813.53;4952348;28;20113;-47
2024/04/07 08:30:32;;;;;;;3.15;1.50;;;24.20;42.00;;;18.86;56.31;95828.81;4952370;28;20125;-54
2024/04/07 08:33:00;;;;;;;2.95;1.60;;;24.40;41.50;;;19.05;60.40;95821.25;4952116;28;20495;-49
2024/04/07 08:35:26;;;;;;;3.05;1.25;;;24.60;41.60;;;19.22;58.43;95817.84;4951821;28;20084;-50
2024/04/07 08:37:54;;;;;;;3.58;1.40;;;24.80;41.50;;;19.43;56.06;95823.44;4952856;28;20632;-50
2024/04/07 08:40:21;;;;;;;2.65;1.50;;;25.00;41.00;;;19.58;51.67;95814.88;4951410;28;20374;-48
2024/04/07 08:42:49;;;;;;;5.95;1.60;;;25.20;40.40;;;19.79;51.18;95817.00;4951734;28;20031;-54
2024/04/07 08:45:21;;;;;;;4.20;1.58;;;25.40;39.90;;;19.96;46.37;95813.50;4948003;28;20467;-50
2024/04/07 08:47:49;;;;;;;6.00;1.85;;;25.60;38.90;;;20.17;43.96;95816.34;4949721;28;20058;-49
2024/04/07 08:50:16;;;;;;;7.45;2.22;;;25.80;38.80;;;20.41;44.16;95818.53;4964081;28;20389;-54
2024/04/07 08:52:44;;;;;;;5.25;2.33;;;26.00;37.70;;;20.63;44.74;95818.34;4949856;28;20103;-50
2024/04/07 08:55:10;;;;;;;5.82;1.70;;;26.20;37.10;;;20.82;46.81;95826.09;4963946;28;20548;-47
2024/04/07 08:57:40;;;;;;;6.00;1.60;;;26.40;37.20;;;21.00;48.44;95826.84;4951313;28;20092;-49
2024/04/07 09:00:08;;;;;;;4.05;2.15;;;26.60;37.20;;;21.14;49.32;95821.97;4948796;28;20022;-50
2024/04/07 09:02:36;;;;;;;4.40;1.50;;;26.80;37.30;;;21.26;44.89;95818.56;4948529;28;20027;-52
2024/04/07 09:05:04;;;;;;;5.07;2.00;;;27.00;36.70;;;21.49;46.78;95824.53;4952473;28;20034;-49
2024/04/07 09:07:30;;;;;;;4.82;1.70;;;27.30;36.60;;;21.69;44.79;95822.97;4949250;28;20448;-53
2024/04/07 09:09:56;;;;;;;5.30;2.33;;;27.50;36.20;;;21.85;44.08;95829.38;4951011;28;20050;-53
2024/04/07 09:12:22;;;;;;;5.70;1.77;;;27.70;35.80;;;22.00;41.67;95819.88;4949060;28;20027;-49
2024/04/07 09:14:49;;;;;;;5.13;2.13;;;28.00;35.10;;;22.24;41.70;95819.19;4949600;28;20030;-50
2024/04/07 09:17:16;;;;;;;5.65;2.08;;;28.30;34.60;;;22.48;40.66;95821.22;4950854;28;20050;-49
2024/04/07 09:19:42;;;;;;;5.30;2.20;;;28.50;34.00;;;22.63;38.79;95815.13;4950399;28;20425;-50
2024/04/07 09:22:09;;;;;;;7.22;2.20;;;28.60;33.50;;;22.87;38.51;95814.38;4950215;28;20069;-54
2024/04/07 09:24:38;;;;;;;4.70;2.08;;;28.90;33.00;;;23.04;34.96;95810.69;4949814;28;20486;-52
2024/04/07 09:27:10;;;;;;;7.18;2.40;;;29.10;31.90;;;23.24;36.51;95814.44;4948298;28;20035;-51
2024/04/07 09:29:41;;;;;;;5.30;2.00;;;29.40;31.70;;;23.38;37.14;95811.38;4952784;28;20029;-51
2024/04/07 09:32:09;;;;;;;5.75;2.67;;;29.60;31.40;;;23.64;37.80;95796.63;4950314;28;20031;-51
2024/04/07 09:34:35;;;;;;;6.25;2.05;;;29.80;31.40;;;23.82;36.46;95800.69;4953201;28;20533;-48
2024/04/07 09:37:03;;;;;;;3.90;2.15;;;29.90;30.90;;;24.02;34.75;95804.34;4952045;28;20058;-53
2024/04/07 09:39:29;;;;;;;5.85;2.28;;;30.00;30.20;;;24.29;34.52;95805.50;4953264;28;20022;-49
2024/04/07 09:42:01;;;;;;;4.22;1.88;;;30.20;30.00;;;24.42;34.34;95800.81;4952805;28;20026;-49
2024/04/07 09:44:35;;;;;;;5.00;2.08;;;30.30;29.60;;;24.43;34.52;95800.47;4948202;28;20018;-46
2024/04/07 09:47:09;;;;;;;4.85;2.00;;;30.50;29.50;;;24.59;35.86;95800.50;4951103;28;20538;-48
2024/04/07 09:49:40;;;;;;;4.70;1.80;;;30.70;29.50;;;24.69;35.42;95810.88;4957991;28;20026;-51
2024/04/07 09:52:13;;;;;;;6.33;2.53;;;30.90;29.40;;;24.84;35.44;95814.75;4956372;28;20394;-48
2024/04/07 09:54:46;;;;;;;11.43;2.53;;;31.20;29.30;;;25.00;34.50;95811.25;4949068;28;20038;-50
2024/04/07 09:57:17;;;;;;;5.10;2.50;;;31.40;29.00;;;25.11;34.26;95813.09;4951954;28;20027;-50
2024/04/07 09:59:48;;;;;;;3.72;1.70;;;31.60;28.70;;;25.23;33.33;95812.25;4950846;28;20390;-47
2024/04/07 10:02:14;;;;;;;5.45;2.40;;;31.80;28.50;;;25.50;33.91;95815.97;4951906;28;20173;-51
2024/04/07 10:04:42;;;;;;;8.60;2.42;;;31.90;28.40;;;25.58;32.43;95812.25;4952540;28;20271;-52
2024/04/07 10:07:13;;;;;;;6.47;2.10;;;31.90;28.00;;;25.70;33.34;95805.09;4951194;28;20144;-50
2024/04/07 10:09:43;;;;;;;6.35;1.77;;;32.00;27.90;;;25.52;32.80;95808.22;4952864;28;20105;-51
2024/04/07 10:12:09;;;;;;;6.13;2.15;;;32.00;27.70;;;25.57;32.86;95801.69;4951578;28;20038;-48
2024/04/07 10:14:44;;;;;;;5.10;2.00;;;32.00;27.70;;;25.05;34.60;95803.59;4945128;28;20034;-52
2024/04/07 10:17:12;;;;;;;4.32;1.95;;;31.90;27.50;;;25.18;35.06;95798.88;4947348;28;20031;-54
2024/04/07 10:19:46;;;;;;;5.60;2.80;;;31.80;27.80;;;25.17;33.84;95799.25;4947319;28;20018;-53
2024/04/07 10:22:15;;;;;;;4.93;2.08;;;31.70;27.60;;;25.18;34.62;95798.88;4944848;28;20557;-53
2024/04/07 10:24:41;;;;;;;6.22;2.33;;;31.60;27.80;;;25.31;35.18;95794.09;4962356;28;20034;-56